createdAt,value
2022-10-22T00:00:17.185Z,6.06
2022-10-22T00:02:44.633Z,6.12
2022-10-22T00:05:11.802Z,6.10
2022-10-22T00:07:38.919Z,6.05
2022-10-22T00:10:08.172Z,6.03
2022-10-22T00:12:35.282Z,6.07
2022-10-22T00:15:02.769Z,6.08
2022-10-22T00:17:29.525Z,6.04
2022-10-22T00:19:56.329Z,5.98
2022-10-22T00:22:23.114Z,5.91
2022-10-22T00:24:49.941Z,5.89
2022-10-22T00:27:16.861Z,5.87
2022-10-22T00:29:43.755Z,5.88
2022-10-22T00:32:10.652Z,5.88
2022-10-22T00:34:37.507Z,5.86
2022-10-22T00:37:04.465Z,5.83
2022-10-22T00:39:31.233Z,5.80
2022-10-22T00:41:58.500Z,5.72
2022-10-22T00:45:02.336Z,5.81
2022-10-22T00:47:36.564Z,5.71
2022-10-22T00:50:06.738Z,5.69
2022-10-22T00:52:33.812Z,5.62
2022-10-22T00:55:01.646Z,5.62
2022-10-22T00:57:29.099Z,5.55
2022-10-22T00:59:57.402Z,5.58
2022-10-22T01:02:24.374Z,5.54
2022-10-22T01:04:51.244Z,5.51
2022-10-22T01:07:20.406Z,5.52
2022-10-22T01:10:10.859Z,5.52
2022-10-22T01:13:07.080Z,5.53
2022-10-22T01:16:00.374Z,5.53
2022-10-22T01:18:42.060Z,5.54
2022-10-22T01:21:11.961Z,5.53
2022-10-22T01:23:57.559Z,5.46
2022-10-22T01:29:21.601Z,5.48
2022-10-22T01:32:02.875Z,5.55
2022-10-22T01:34:31.973Z,5.50
2022-10-22T01:37:00.543Z,5.53
2022-10-22T01:39:29.552Z,5.48
2022-10-22T01:41:57.375Z,5.46
2022-10-22T01:44:28.631Z,5.42
2022-10-22T01:47:05.164Z,5.39
2022-10-22T01:50:04.588Z,5.37
2022-10-22T01:52:42.828Z,5.39
2022-10-22T01:55:20.457Z,5.40
2022-10-22T01:58:22.662Z,5.36
2022-10-22T02:01:19.183Z,5.26
2022-10-22T02:04:05.552Z,5.34
2022-10-22T02:06:34.047Z,5.34
2022-10-22T02:09:02.701Z,5.31
2022-10-22T02:11:30.075Z,5.26
2022-10-22T02:14:00.406Z,5.30
2022-10-22T02:16:49.528Z,5.27
2022-10-22T02:19:23.659Z,5.25
2022-10-22T02:21:50.701Z,5.17
2022-10-22T02:24:18.692Z,5.16
2022-10-22T02:27:04.180Z,5.15
2022-10-22T02:29:35.170Z,5.14
2022-10-22T02:32:06.028Z,5.07
2022-10-22T02:34:33.428Z,4.99
2022-10-22T02:37:02.804Z,4.97
2022-10-22T02:39:31.610Z,4.96
2022-10-22T02:41:58.531Z,4.95
2022-10-22T02:44:25.309Z,4.97
2022-10-22T02:46:52.336Z,4.93
2022-10-22T02:49:19.201Z,4.91
2022-10-22T02:51:46.044Z,4.93
2022-10-22T02:54:12.920Z,4.96
2022-10-22T02:56:39.884Z,4.95
2022-10-22T02:59:06.763Z,4.96
2022-10-22T03:01:33.755Z,4.93
2022-10-22T03:04:00.646Z,4.92
2022-10-22T03:06:27.533Z,4.98
2022-10-22T03:08:56.011Z,5.00
2022-10-22T03:11:22.881Z,5.02
2022-10-22T03:13:49.660Z,5.06
2022-10-22T03:16:16.454Z,5.04
2022-10-22T03:18:43.319Z,5.04
2022-10-22T03:21:13.135Z,5.03
2022-10-22T03:23:43.960Z,4.97
2022-10-22T03:26:13.710Z,4.99
2022-10-22T03:28:42.591Z,4.99
2022-10-22T03:31:10.805Z,4.97
2022-10-22T03:33:37.587Z,4.95
2022-10-22T03:36:04.742Z,4.92
2022-10-22T03:38:31.772Z,4.85
2022-10-22T03:40:59.041Z,4.90
2022-10-22T03:43:28.575Z,4.90
2022-10-22T03:45:57.489Z,4.90
2022-10-22T03:48:24.383Z,4.93
2022-10-22T03:50:51.306Z,4.90
2022-10-22T03:53:18.171Z,4.89
2022-10-22T03:55:44.976Z,4.88
2022-10-22T03:58:11.884Z,4.87
2022-10-22T04:00:38.686Z,4.89
2022-10-22T04:03:05.544Z,4.84
2022-10-22T04:05:34.001Z,4.92
2022-10-22T04:08:01.123Z,4.91
2022-10-22T04:10:27.902Z,4.90
2022-10-22T04:12:54.735Z,4.89
2022-10-22T04:15:21.627Z,4.90
2022-10-22T04:17:48.442Z,4.89
2022-10-22T04:20:15.282Z,4.96
2022-10-22T04:22:42.239Z,5.00
2022-10-22T04:25:09.495Z,5.06
2022-10-22T04:27:36.965Z,5.04
2022-10-22T04:30:05.202Z,5.10
2022-10-22T04:32:32.022Z,5.48
2022-10-22T04:34:58.813Z,5.64
2022-10-22T04:37:25.662Z,5.58
2022-10-22T04:39:52.452Z,5.57
2022-10-22T04:42:19.239Z,5.58
2022-10-22T04:44:46.581Z,5.62
2022-10-22T04:47:13.445Z,5.65
2022-10-22T04:49:40.600Z,5.71
2022-10-22T04:52:07.569Z,5.70
2022-10-22T04:54:34.429Z,5.74
2022-10-22T04:57:01.423Z,5.68
2022-10-22T04:59:28.281Z,5.69
2022-10-22T05:01:55.144Z,5.66
2022-10-22T05:04:21.950Z,5.65
2022-10-22T05:06:48.823Z,5.65
2022-10-22T05:09:18.841Z,5.65
2022-10-22T05:11:51.402Z,5.67
2022-10-22T05:14:23.999Z,5.63
2022-10-22T05:16:52.160Z,5.64
2022-10-22T05:19:24.278Z,5.60
2022-10-22T05:21:52.997Z,5.65
2022-10-22T05:24:21.010Z,5.58
2022-10-22T05:26:52.746Z,5.57
2022-10-22T05:29:20.075Z,5.46
2022-10-22T05:31:47.014Z,5.48
2022-10-22T05:34:13.944Z,5.48
2022-10-22T05:36:41.912Z,5.55
2022-10-22T05:39:08.768Z,5.57
2022-10-22T05:41:36.581Z,5.65
2022-10-22T05:44:04.273Z,5.71
2022-10-22T05:46:35.569Z,5.73
2022-10-22T05:49:05.090Z,5.78
2022-10-22T05:51:32.957Z,5.82
2022-10-22T05:54:02.115Z,5.87
2022-10-22T05:56:32.164Z,5.96
2022-10-22T05:58:59.507Z,5.95
2022-10-22T06:01:35.266Z,6.02
2022-10-22T06:04:05.227Z,6.07
2022-10-22T06:06:35.325Z,6.13
2022-10-22T06:09:10.399Z,6.14
2022-10-22T06:11:37.351Z,6.13
2022-10-22T06:14:04.782Z,6.28
2022-10-22T06:16:32.191Z,6.34
2022-10-22T06:19:02.219Z,6.42
2022-10-22T06:21:30.234Z,6.55
2022-10-22T06:23:58.131Z,6.65
2022-10-22T06:26:25.552Z,6.72
2022-10-22T06:28:53.106Z,6.88
2022-10-22T06:31:20.014Z,6.98
2022-10-22T06:33:46.861Z,7.05
2022-10-22T06:36:19.592Z,7.16
2022-10-22T06:38:46.579Z,7.23
2022-10-22T06:41:18.559Z,7.34
2022-10-22T06:43:47.077Z,7.45
2022-10-22T06:46:19.179Z,7.56
2022-10-22T06:48:55.433Z,7.64
2022-10-22T06:51:22.611Z,7.66
2022-10-22T06:53:49.499Z,7.80
2022-10-22T06:56:19.308Z,7.81
2022-10-22T06:58:51.049Z,7.91
2022-10-22T07:01:20.705Z,8.02
2022-10-22T07:03:49.947Z,8.16
2022-10-22T07:06:16.872Z,8.26
2022-10-22T07:08:44.142Z,8.35
2022-10-22T07:11:19.828Z,8.45
2022-10-22T07:13:47.684Z,8.52
2022-10-22T07:16:15.320Z,8.65
2022-10-22T07:18:42.881Z,8.72
2022-10-22T07:21:11.694Z,8.74
2022-10-22T07:23:39.189Z,8.79
2022-10-22T07:26:08.721Z,8.89
2022-10-22T07:28:38.973Z,9.00
2022-10-22T07:31:06.741Z,9.09
2022-10-22T07:33:33.678Z,9.22
2022-10-22T07:36:02.231Z,9.35
2022-10-22T07:38:31.740Z,9.45
2022-10-22T07:41:02.630Z,9.59
2022-10-22T07:43:29.956Z,9.73
2022-10-22T07:45:56.821Z,9.85
2022-10-22T07:48:24.013Z,9.96
2022-10-22T07:50:52.266Z,10.14
2022-10-22T07:53:19.867Z,10.33
2022-10-22T07:55:53.151Z,10.57
2022-10-22T07:58:21.491Z,10.90
2022-10-22T08:00:48.858Z,11.01
2022-10-22T08:03:17.149Z,11.20
2022-10-22T08:05:44.629Z,11.19
2022-10-22T08:08:13.131Z,11.39
2022-10-22T08:10:40.183Z,11.56
2022-10-22T08:13:08.320Z,11.69
2022-10-22T08:15:35.332Z,11.77
2022-10-22T08:18:02.548Z,12.00
2022-10-22T08:20:30.613Z,12.29
2022-10-22T08:22:58.254Z,12.40
2022-10-22T08:25:25.673Z,12.58
2022-10-22T08:27:52.546Z,12.73
2022-10-22T08:30:20.256Z,12.76
2022-10-22T08:32:49.310Z,12.89
2022-10-22T08:35:18.492Z,12.99
2022-10-22T08:37:45.519Z,13.16
2022-10-22T08:40:23.350Z,13.32
2022-10-22T08:43:10.551Z,13.47
2022-10-22T08:46:07.927Z,13.70
2022-10-22T08:48:40.552Z,13.95
2022-10-22T08:51:15.463Z,14.09
2022-10-22T08:54:08.828Z,14.02
2022-10-22T08:56:37.225Z,14.06
2022-10-22T08:59:15.002Z,14.20
2022-10-22T09:01:51.784Z,14.32
2022-10-22T09:04:49.047Z,14.56
2022-10-22T09:07:16.119Z,14.72
2022-10-22T09:09:49.315Z,14.74
2022-10-22T09:12:25.758Z,14.92
2022-10-22T09:14:54.982Z,14.93
2022-10-22T09:17:35.573Z,15.18
2022-10-22T09:20:26.976Z,15.56
2022-10-22T09:23:31.762Z,15.57
2022-10-22T09:26:00.103Z,15.88
2022-10-22T09:28:26.984Z,15.89
2022-10-22T09:30:53.940Z,15.85
2022-10-22T09:33:28.257Z,16.22
2022-10-22T09:35:58.586Z,16.31
2022-10-22T09:38:34.433Z,16.39
2022-10-22T09:41:04.196Z,16.55
2022-10-22T09:43:32.206Z,16.73
2022-10-22T09:46:04.817Z,16.81
2022-10-22T09:48:39.619Z,16.95
2022-10-22T09:51:15.075Z,16.91
2022-10-22T09:53:44.684Z,16.90
2022-10-22T09:56:41.891Z,16.93
2022-10-22T09:59:26.050Z,16.93
2022-10-22T10:02:13.599Z,16.83
2022-10-22T10:04:51.584Z,16.49
2022-10-22T10:07:21.094Z,16.37
2022-10-22T10:09:48.670Z,16.19
2022-10-22T10:12:34.107Z,16.31
2022-10-22T10:15:28.536Z,16.59
2022-10-22T10:18:09.765Z,16.82
2022-10-22T10:21:08.521Z,16.91
2022-10-22T10:23:47.241Z,17.19
2022-10-22T10:26:43.467Z,17.35
2022-10-22T10:32:24.431Z,17.46
2022-10-22T10:35:15.944Z,17.46
2022-10-22T10:38:27.289Z,17.66
2022-10-22T10:41:26.482Z,17.89
2022-10-22T10:43:59.269Z,17.88
2022-10-22T10:46:50.756Z,18.15
2022-10-22T10:49:21.406Z,18.30
2022-10-22T10:51:59.723Z,18.37
2022-10-22T10:57:35.035Z,18.58
2022-10-22T11:00:27.927Z,18.76
2022-10-22T11:02:58.818Z,18.85
2022-10-22T11:05:28.655Z,18.79
2022-10-22T11:08:06.492Z,18.86
2022-10-22T11:10:41.116Z,18.95
2022-10-22T11:13:58.194Z,19.17
2022-10-22T11:16:31.114Z,19.49
2022-10-22T11:19:49.615Z,19.28
2022-10-22T11:22:26.985Z,19.12
2022-10-22T11:25:02.963Z,19.32
2022-10-22T11:27:40.655Z,19.60
2022-10-22T11:30:16.789Z,19.80
2022-10-22T11:32:50.010Z,19.70
2022-10-22T11:35:25.791Z,19.80
2022-10-22T11:37:56.801Z,19.78
2022-10-22T11:40:29.313Z,19.87
2022-10-22T11:43:05.397Z,20.21
2022-10-22T11:45:37.877Z,20.26
2022-10-22T11:48:19.171Z,20.37
2022-10-22T11:50:56.755Z,20.46
2022-10-22T11:53:32.294Z,20.39
2022-10-22T11:56:23.419Z,20.24
2022-10-22T11:58:53.949Z,20.38
2022-10-22T12:01:25.085Z,20.39
2022-10-22T12:03:54.132Z,20.57
2022-10-22T12:06:24.429Z,20.59
2022-10-22T12:08:57.443Z,20.73
2022-10-22T12:11:41.487Z,20.85
2022-10-22T12:14:29.765Z,20.85
2022-10-22T12:17:09.970Z,20.95
2022-10-22T12:19:45.856Z,20.89
2022-10-22T12:22:12.777Z,20.96
2022-10-22T12:24:46.892Z,20.97
2022-10-22T12:27:38.668Z,21.24
2022-10-22T12:30:21.503Z,21.56
2022-10-22T12:32:48.467Z,21.68
2022-10-22T12:35:18.535Z,21.59
2022-10-22T12:37:49.180Z,21.41
2022-10-22T12:40:23.320Z,21.35
2022-10-22T12:42:57.293Z,21.26
2022-10-22T12:45:28.139Z,21.23
2022-10-22T12:48:04.866Z,21.33
2022-10-22T12:50:38.305Z,21.61
2022-10-22T12:53:17.044Z,21.68
2022-10-22T12:55:51.503Z,21.84
2022-10-22T12:58:25.418Z,22.21
2022-10-22T13:00:58.556Z,22.28
2022-10-22T13:03:33.308Z,22.62
2022-10-22T13:06:34.038Z,22.86
2022-10-22T13:09:27.841Z,22.88
2022-10-22T13:12:01.841Z,22.52
2022-10-22T13:14:33.570Z,22.38
2022-10-22T13:17:42.397Z,22.48
2022-10-22T13:20:23.507Z,22.84
2022-10-22T13:23:02.844Z,22.93
2022-10-22T13:25:35.178Z,23.06
2022-10-22T13:28:20.369Z,22.91
2022-10-22T13:30:59.532Z,22.87
2022-10-22T13:33:42.233Z,22.71
2022-10-22T13:36:16.322Z,22.66
2022-10-22T13:38:44.761Z,22.95
2022-10-22T13:41:25.279Z,22.89
2022-10-22T13:43:53.542Z,22.65
2022-10-22T13:46:21.609Z,22.43
2022-10-22T13:48:50.877Z,22.22
2022-10-22T13:51:20.663Z,22.08
2022-10-22T13:53:49.716Z,21.86
2022-10-22T13:56:19.640Z,21.62
2022-10-22T13:58:47.787Z,21.49
2022-10-22T14:01:26.591Z,21.29
2022-10-22T14:03:54.716Z,21.34
2022-10-22T14:06:22.799Z,21.49
2022-10-22T14:08:55.246Z,21.66
2022-10-22T14:11:22.282Z,21.85
2022-10-22T14:13:49.135Z,22.13
2022-10-22T14:16:21.906Z,22.35
2022-10-22T14:18:49.394Z,22.73
2022-10-22T14:21:17.967Z,22.83
2022-10-22T14:23:47.068Z,22.82
2022-10-22T14:26:40.624Z,22.78
2022-10-22T14:29:09.871Z,22.72
2022-10-22T14:34:27.463Z,22.68
2022-10-22T14:36:54.772Z,22.73
2022-10-22T14:39:21.856Z,22.74
2022-10-22T14:41:48.721Z,22.63
2022-10-22T14:44:15.625Z,22.51
2022-10-22T14:46:44.407Z,22.26
2022-10-22T14:49:11.681Z,21.97
2022-10-22T14:51:39.732Z,21.60
2022-10-22T14:54:07.164Z,21.29
2022-10-22T14:56:34.120Z,21.12
2022-10-22T14:59:01.068Z,20.95
2022-10-22T15:01:27.873Z,20.69
2022-10-22T15:03:54.916Z,20.42
2022-10-22T15:06:21.739Z,20.21
2022-10-22T15:08:48.681Z,20.06
2022-10-22T15:11:16.407Z,19.88
2022-10-22T15:13:44.053Z,19.65
2022-10-22T15:16:13.203Z,19.52
2022-10-22T15:18:40.058Z,19.33
2022-10-22T15:21:14.429Z,19.17
2022-10-22T15:23:41.431Z,18.98
2022-10-22T15:26:09.681Z,18.94
2022-10-22T15:28:38.184Z,18.91
2022-10-22T15:31:05.522Z,18.80
2022-10-22T15:33:32.417Z,18.65
2022-10-22T15:35:59.698Z,18.47
2022-10-22T15:41:16.616Z,18.23
2022-10-22T15:43:43.465Z,18.06
2022-10-22T15:46:16.638Z,17.92
2022-10-22T15:48:43.776Z,17.86
2022-10-22T15:51:13.100Z,17.75
2022-10-22T15:53:40.512Z,17.70
2022-10-22T15:56:07.954Z,17.55
2022-10-22T15:58:34.975Z,17.29
2022-10-22T16:01:11.047Z,17.10
2022-10-22T16:03:38.233Z,17.06
2022-10-22T16:06:07.498Z,16.94
2022-10-22T16:08:35.008Z,16.83
2022-10-22T16:11:02.010Z,16.63
2022-10-22T16:13:28.918Z,16.47
2022-10-22T16:15:55.928Z,16.41
2022-10-22T16:18:23.820Z,16.27
2022-10-22T16:20:50.742Z,16.01
2022-10-22T16:23:19.172Z,15.75
2022-10-22T16:25:46.838Z,15.65
2022-10-22T16:28:14.364Z,15.57
2022-10-22T16:30:41.885Z,15.53
2022-10-22T16:33:10.116Z,15.49
2022-10-22T16:35:41.563Z,15.41
2022-10-22T16:38:10.422Z,15.32
2022-10-22T16:40:37.362Z,15.24
2022-10-22T16:43:04.248Z,15.07
2022-10-22T16:45:31.215Z,15.03
2022-10-22T16:47:58.267Z,14.98
2022-10-22T16:50:25.053Z,14.97
2022-10-22T16:52:51.971Z,14.90
2022-10-22T16:55:18.894Z,14.78
2022-10-22T16:57:51.849Z,14.63
2022-10-22T17:00:20.518Z,14.57
2022-10-22T17:02:52.749Z,14.52
2022-10-22T17:05:19.977Z,14.46
2022-10-22T17:07:46.860Z,14.48
2022-10-22T17:10:13.818Z,14.44
2022-10-22T17:12:41.526Z,14.36
2022-10-22T17:15:08.951Z,14.40
2022-10-22T17:17:35.875Z,14.39
2022-10-22T17:20:02.809Z,14.36
2022-10-22T17:22:29.733Z,14.31
2022-10-22T17:25:16.280Z,14.32
2022-10-22T17:27:44.349Z,14.24
2022-10-22T17:30:24.796Z,14.21
2022-10-22T17:32:55.023Z,14.14
2022-10-22T17:35:21.923Z,14.14
2022-10-22T17:37:48.876Z,14.17
2022-10-22T17:40:15.925Z,14.07
2022-10-22T17:42:43.180Z,14.02
2022-10-22T17:45:14.411Z,13.98
2022-10-22T17:50:48.207Z,13.82
2022-10-22T17:53:17.944Z,13.73
2022-10-22T17:55:46.955Z,13.75
2022-10-22T17:58:13.704Z,13.71
2022-10-22T18:00:40.577Z,13.71
2022-10-22T18:03:10.953Z,13.73
2022-10-22T18:05:37.767Z,13.63
2022-10-22T18:08:07.780Z,13.69
2022-10-22T18:10:40.108Z,13.66
2022-10-22T18:13:09.769Z,13.60
2022-10-22T18:15:36.706Z,13.57
2022-10-22T18:18:04.549Z,13.52
2022-10-22T18:20:32.921Z,13.42
2022-10-22T18:23:00.938Z,13.38
2022-10-22T18:25:27.841Z,13.30
2022-10-22T18:27:54.748Z,13.33
2022-10-22T18:30:21.502Z,13.17
2022-10-22T18:32:48.336Z,12.96
2022-10-22T18:35:15.238Z,12.91
2022-10-22T18:37:42.834Z,12.88
2022-10-22T18:40:14.731Z,12.86
2022-10-22T18:42:47.648Z,12.74
2022-10-22T18:45:14.564Z,12.77
2022-10-22T18:47:41.863Z,12.72
2022-10-22T18:50:09.507Z,12.61
2022-10-22T18:52:36.409Z,12.50
2022-10-22T18:55:03.595Z,12.46
2022-10-22T18:57:30.700Z,12.41
2022-10-22T19:00:00.093Z,12.42
2022-10-22T19:02:27.171Z,12.39
2022-10-22T19:04:54.074Z,12.40
2022-10-22T19:07:20.830Z,12.34
2022-10-22T19:09:47.750Z,12.29
2022-10-22T19:12:15.972Z,12.27
2022-10-22T19:14:43.007Z,12.24
2022-10-22T19:17:09.853Z,12.29
2022-10-22T19:19:36.824Z,12.30
2022-10-22T19:22:04.807Z,12.28
2022-10-22T19:24:31.786Z,12.28
2022-10-22T19:27:01.185Z,12.15
2022-10-22T19:29:28.269Z,12.16
2022-10-22T19:31:55.718Z,12.13
2022-10-22T19:34:22.673Z,12.08
2022-10-22T19:36:51.894Z,12.04
2022-10-22T19:39:19.038Z,11.95
2022-10-22T19:41:45.996Z,11.80
2022-10-22T19:44:12.826Z,11.70
2022-10-22T19:46:39.615Z,11.72
2022-10-22T19:49:06.642Z,11.80
2022-10-22T19:51:34.632Z,11.84
2022-10-22T19:54:08.094Z,11.85
2022-10-22T19:56:37.784Z,11.84
2022-10-22T19:59:08.243Z,11.85
2022-10-22T20:01:35.205Z,11.88
2022-10-22T20:04:02.207Z,11.88
2022-10-22T20:06:30.032Z,11.90
2022-10-22T20:08:57.359Z,11.87
2022-10-22T20:11:30.045Z,11.79
2022-10-22T20:13:58.026Z,11.73
2022-10-22T20:16:30.019Z,11.70
2022-10-22T20:19:02.162Z,11.58
2022-10-22T20:21:29.416Z,11.59
2022-10-22T20:23:57.529Z,11.59
2022-10-22T20:26:28.250Z,11.56
2022-10-22T20:28:57.201Z,11.55
2022-10-22T20:31:27.201Z,11.53
2022-10-22T20:33:56.698Z,11.51
2022-10-22T20:36:24.485Z,11.47
2022-10-22T20:38:51.769Z,11.37
2022-10-22T20:41:23.147Z,11.36
2022-10-22T20:43:51.645Z,11.27
2022-10-22T20:46:22.545Z,11.24
2022-10-22T20:48:55.483Z,11.25
2022-10-22T20:51:22.744Z,11.21
2022-10-22T20:53:49.791Z,11.17
2022-10-22T20:56:18.068Z,11.15
2022-10-22T20:58:48.728Z,11.17
2022-10-22T21:01:24.481Z,11.11
2022-10-22T21:03:52.703Z,11.05
2022-10-22T21:06:23.514Z,10.97
2022-10-22T21:08:51.754Z,10.92
2022-10-22T21:11:19.616Z,10.88
2022-10-22T21:13:46.709Z,10.85
2022-10-22T21:16:15.243Z,10.75
2022-10-22T21:18:42.037Z,10.77
2022-10-22T21:21:09.539Z,10.79
2022-10-22T21:23:37.076Z,10.79
2022-10-22T21:26:04.928Z,10.82
2022-10-22T21:28:35.566Z,10.81
2022-10-22T21:31:05.027Z,10.61
2022-10-22T21:33:35.020Z,10.61
2022-10-22T21:36:01.887Z,10.64
2022-10-22T21:38:28.786Z,10.61
2022-10-22T21:40:55.668Z,10.67
2022-10-22T21:43:22.449Z,10.70
2022-10-22T21:45:49.277Z,10.67
2022-10-22T21:48:16.171Z,10.67
2022-10-22T21:50:44.299Z,10.69
2022-10-22T21:53:12.284Z,10.62
2022-10-22T21:55:42.200Z,10.59
2022-10-22T21:58:09.222Z,10.61
2022-10-22T22:00:36.396Z,10.58
2022-10-22T22:03:06.035Z,10.59
2022-10-22T22:05:32.864Z,10.60
2022-10-22T22:07:59.803Z,10.57
2022-10-22T22:10:26.821Z,10.58
2022-10-22T22:12:53.659Z,10.55
2022-10-22T22:15:20.819Z,10.59
2022-10-22T22:17:47.711Z,10.58
2022-10-22T22:20:14.621Z,10.57
2022-10-22T22:22:41.797Z,10.54
2022-10-22T22:25:09.101Z,10.52
2022-10-22T22:27:36.013Z,10.46
2022-10-22T22:30:03.675Z,10.44
2022-10-22T22:32:31.561Z,10.38
2022-10-22T22:34:58.498Z,10.30
2022-10-22T22:37:27.447Z,10.19
2022-10-22T22:39:54.552Z,10.18
2022-10-22T22:42:21.396Z,10.11
2022-10-22T22:44:48.228Z,10.10
2022-10-22T22:47:15.115Z,10.07
2022-10-22T22:49:41.893Z,10.07
2022-10-22T22:52:09.940Z,10.07
2022-10-22T22:54:36.845Z,10.06
2022-10-22T22:57:03.723Z,10.04
2022-10-22T22:59:30.567Z,9.98
2022-10-22T23:01:57.703Z,9.98
2022-10-22T23:04:25.341Z,9.98
2022-10-22T23:06:52.789Z,9.94
2022-10-22T23:12:07.827Z,9.91
2022-10-22T23:14:34.667Z,9.89
2022-10-22T23:17:01.504Z,9.94
2022-10-22T23:19:28.333Z,9.92
2022-10-22T23:21:56.337Z,9.96
2022-10-22T23:24:26.400Z,9.99
2022-10-22T23:26:54.724Z,9.96
2022-10-22T23:29:24.856Z,9.94
2022-10-22T23:31:52.555Z,9.90
2022-10-22T23:34:22.258Z,9.90
2022-10-22T23:36:49.986Z,9.85
2022-10-22T23:39:20.687Z,9.86
2022-10-22T23:41:47.469Z,9.70
2022-10-22T23:44:14.415Z,9.56
2022-10-22T23:46:41.908Z,9.57
2022-10-22T23:49:10.083Z,9.57
2022-10-22T23:51:38.135Z,9.56
2022-10-22T23:54:11.324Z,9.64
2022-10-22T23:56:38.288Z,9.55
2022-10-22T23:59:05.688Z,9.69
